KAVL/AVL METAR and TAF weather

Enter ICAO airport designator
Station Type Date Time Source
KAVL METAR 2022/12/04 10:54 UTC NOAA

KAVL 041054Z AUTO 02006KT 10SM CLR 04/02 A3024 RMK AO2 SLP236 T00390017 $


Station Type Date Time Source
KAVL Decoded METAR 2022/12/04 10:54 UTC NOAA

ASHEVILLE REGIONAL AIRPORT, NC, United States (KAVL) 35-26N 82-32W 670M
Dec 04, 2022 - 05:54 AM EST / 2022.12.04 1054 UTC
Wind: from the NNE (020 degrees) at 7 MPH (6 KT):0
Visibility: 10 mile(s):0
Sky conditions: clear
Temperature: 39.0 F (3.9 C)
Dew Point: 35.1 F (1.7 C)
Relative Humidity: 85%
Pressure (altimeter): 30.24 in. Hg (1024 hPa)
ob: KAVL 041054Z AUTO 02006KT 10SM CLR 04/02 A3024 RMK AO2 SLP236 T00390017
cycle: 11

Station Type Date Time Source
KAVL TAF 2022/12/04 06:42 UTC NOAA

TAF KAVL 040539Z 0406/0506 34011KT P6SM FEW025 BKN250
FM041300 34004KT P6SM BKN250
FM050000 VRB02KT P6SM BKN100

Example: see airport list